Stornoway — WDC7908 — position and weather

sailwx.info

Track history (hours):
 
Tides and Currents Weather Stations Pressure Air Temp Water Temp Dewpoint Dewpoint Depression Visibility Wind Speed Wind Dir Waves Ship Positions

Stornoway

Owner: Matthews, William R, Bainbridge Island, WA. More information available from US FCC via Universal Licensing System and Coast Guard Vessel Documentation Center.

Last reported at 2016-May-24 20:16 UTC. Time now 2016-May-27 10:21 UTC.
Position N 50°02' W 123°54'.

Length 13 m.

Type: Pleasure craft. MMSI: 367078810.

Date/timePositionNaut miles runAvg speedWind from/ knotsBaromVisibWave heightAir tempDewpointWater temp
2016-May-24 20:16N 50°02' W 123°54'  
2016-May-20 16:32N 49°01' W 123°39'9 0.4
2016-May-19 20:23N 48°54' W 123°30'24 1.1
2016-May-18 22:11N 48°37' W 123°05'6 9.5
2016-May-18 21:33N 48°33' W 122°58'3 2.8
2016-May-18 20:31N 48°31' W 122°55'0 0.0
2016-May-18 19:25N 48°31' W 122°55'0 0.0
2016-May-18 18:28N 48°31' W 122°55'0 0.0
2016-May-18 17:28N 48°31' W 122°55'0 0.0
2016-May-18 16:31N 48°31' W 122°55'0 0.0
2016-May-18 15:31N 48°31' W 122°55'0 0.0
2016-May-18 14:31N 48°31' W 122°55'0 0.0
2016-May-18 13:31N 48°31' W 122°55'0 0.0
2016-May-18 12:31N 48°31' W 122°55'0 0.0
2016-May-18 11:31N 48°31' W 122°55'0 0.0
2016-May-18 10:31N 48°31' W 122°55'0 0.0
2016-May-18 09:31N 48°31' W 122°55'0 0.0
2016-May-18 08:31N 48°31' W 122°55'0 0.0
2016-May-18 07:31N 48°31' W 122°55'0 0.0
2016-May-18 06:31N 48°31' W 122°55'0 0.0
2016-May-18 05:31N 48°31' W 122°55'0 0.0
2016-May-18 04:31N 48°31' W 122°55'0 0.0
2016-May-18 03:31N 48°31' W 122°55'0 0.0
2016-May-18 02:31N 48°31' W 122°55'0 0.0
2016-May-18 01:31N 48°31' W 122°55'0 0.0
2016-May-18 00:31N 48°31' W 122°55'0 0.0
2016-May-17 23:31N 48°31' W 122°55'0 0.0
2016-May-17 22:31N 48°31' W 122°55'0 0.0
2016-May-17 21:31N 48°31' W 122°55'0 0.0
2016-May-17 20:31N 48°31' W 122°55'0 0.1
2016-May-17 19:33N 48°31' W 122°55'37 1.9
2016-May-17 00:13N 47°57' W 122°35'6 9.4
2016-May-16 23:33N 47°51' W 122°30'8 8.1
2016-May-16 22:33N 47°43' W 122°30'  
Track history (hours):
 
Tides and Currents Weather Stations Pressure Air Temp Water Temp Dewpoint Dewpoint Depression Visibility Wind Speed Wind Dir Waves Ship Positions

Stornoway

Owner: Matthews, William R, Bainbridge Island, WA. More information available from US FCC via Universal Licensing System and Coast Guard Vessel Documentation Center.

Last reported at 2016-May-24 20:16 UTC. Time now 2016-May-27 10:21 UTC.
Position N 50°02' W 123°54'.

Length 13 m.

Type: Pleasure craft. MMSI: 367078810.

Date/timePositionNaut miles runAvg speedWind from/ knotsBaromVisibWave heightAir tempDewpointWater temp
2016-May-24 20:16N 50°02' W 123°54'  
2016-May-20 16:32N 49°01' W 123°39'9 0.4
2016-May-19 20:23N 48°54' W 123°30'24 1.1
2016-May-18 22:11N 48°37' W 123°05'6 9.5
2016-May-18 21:33N 48°33' W 122°58'3 2.8
2016-May-18 20:31N 48°31' W 122°55'0 0.0
2016-May-18 19:25N 48°31' W 122°55'0 0.0
2016-May-18 18:28N 48°31' W 122°55'0 0.0
2016-May-18 17:28N 48°31' W 122°55'0 0.0
2016-May-18 16:31N 48°31' W 122°55'0 0.0
2016-May-18 15:31N 48°31' W 122°55'0 0.0
2016-May-18 14:31N 48°31' W 122°55'0 0.0
2016-May-18 13:31N 48°31' W 122°55'0 0.0
2016-May-18 12:31N 48°31' W 122°55'0 0.0
2016-May-18 11:31N 48°31' W 122°55'0 0.0
2016-May-18 10:31N 48°31' W 122°55'0 0.0
2016-May-18 09:31N 48°31' W 122°55'0 0.0
2016-May-18 08:31N 48°31' W 122°55'0 0.0
2016-May-18 07:31N 48°31' W 122°55'0 0.0
2016-May-18 06:31N 48°31' W 122°55'0 0.0
2016-May-18 05:31N 48°31' W 122°55'0 0.0
2016-May-18 04:31N 48°31' W 122°55'0 0.0
2016-May-18 03:31N 48°31' W 122°55'0 0.0
2016-May-18 02:31N 48°31' W 122°55'0 0.0
2016-May-18 01:31N 48°31' W 122°55'0 0.0
2016-May-18 00:31N 48°31' W 122°55'0 0.0
2016-May-17 23:31N 48°31' W 122°55'0 0.0
2016-May-17 22:31N 48°31' W 122°55'0 0.0
2016-May-17 21:31N 48°31' W 122°55'0 0.0
2016-May-17 20:31N 48°31' W 122°55'0 0.1
2016-May-17 19:33N 48°31' W 122°55'37 1.9
2016-May-17 00:13N 47°57' W 122°35'6 9.4
2016-May-16 23:33N 47°51' W 122°30'8 8.1
2016-May-16 22:33N 47°43' W 122°30'  

Dump ship's entire track history